sensor_id;sensor_type;location;lat;lon;timestamp;pressure;altitude;pressure_sealevel;temperature;humidity
13027;BME280;6580;42.680;23.324;2023-09-07T00:01:51;95718.41;;;21.25;100.00
13027;BME280;6580;42.680;23.324;2023-09-07T00:04:37;95714.03;;;21.24;100.00
13027;BME280;6580;42.680;23.324;2023-09-07T00:07:25;95711.13;;;21.12;100.00
13027;BME280;6580;42.680;23.324;2023-09-07T00:10:11;95705.91;;;21.17;100.00
13027;BME280;6580;42.680;23.324;2023-09-07T00:12:56;95708.41;;;21.19;100.00
13027;BME280;6580;42.680;23.324;2023-09-07T00:15:44;95706.31;;;21.21;100.00
13027;BME280;6580;42.680;23.324;2023-09-07T00:18:30;95714.88;;;21.18;100.00
13027;BME280;6580;42.680;23.324;2023-09-07T00:21:16;95700.94;;;21.08;100.00
13027;BME280;6580;42.680;23.324;2023-09-07T00:24:03;95717.81;;;21.10;100.00
13027;BME280;6580;42.680;23.324;2023-09-07T00:26:51;95711.34;;;20.98;100.00
13027;BME280;6580;42.680;23.324;2023-09-07T00:29:39;95712.63;;;20.89;100.00
13027;BME280;6580;42.680;23.324;2023-09-07T00:32:26;95707.38;;;20.94;100.00
13027;BME280;6580;42.680;23.324;2023-09-07T00:35:11;95717.63;;;20.92;100.00
13027;BME280;6580;42.680;23.324;2023-09-07T00:37:58;95710.94;;;21.01;100.00
13027;BME280;6580;42.680;23.324;2023-09-07T00:40:45;95709.91;;;20.89;100.00
13027;BME280;6580;42.680;23.324;2023-09-07T00:43:31;95723.00;;;20.79;100.00
13027;BME280;6580;42.680;23.324;2023-09-07T00:46:17;95719.91;;;20.82;100.00
13027;BME280;6580;42.680;23.324;2023-09-07T00:49:02;95712.00;;;20.80;100.00
13027;BME280;6580;42.680;23.324;2023-09-07T00:51:49;95708.44;;;20.80;100.00
13027;BME280;6580;42.680;23.324;2023-09-07T00:54:34;95713.41;;;20.76;100.00
13027;BME280;6580;42.680;23.324;2023-09-07T00:57:25;95705.91;;;20.78;100.00
13027;BME280;6580;42.680;23.324;2023-09-07T01:00:11;95706.50;;;20.67;100.00
13027;BME280;6580;42.680;23.324;2023-09-07T01:02:57;95714.63;;;20.67;100.00
13027;BME280;6580;42.680;23.324;2023-09-07T01:05:49;95705.47;;;20.75;100.00
13027;BME280;6580;42.680;23.324;2023-09-07T01:08:42;95699.25;;;20.61;100.00
13027;BME280;6580;42.680;23.324;2023-09-07T01:11:35;95711.53;;;20.70;100.00
13027;BME280;6580;42.680;23.324;2023-09-07T01:14:23;95714.63;;;20.61;100.00
13027;BME280;6580;42.680;23.324;2023-09-07T01:17:09;95707.56;;;20.60;100.00
13027;BME280;6580;42.680;23.324;2023-09-07T01:19:57;95704.03;;;20.53;100.00
13027;BME280;6580;42.680;23.324;2023-09-07T01:22:50;95709.03;;;20.56;100.00
13027;BME280;6580;42.680;23.324;2023-09-07T01:25:36;95716.53;;;20.54;100.00
13027;BME280;6580;42.680;23.324;2023-09-07T01:28:23;95716.31;;;20.49;100.00
13027;BME280;6580;42.680;23.324;2023-09-07T01:31:10;95707.97;;;20.44;100.00
13027;BME280;6580;42.680;23.324;2023-09-07T01:33:56;95707.38;;;20.55;100.00
13027;BME280;6580;42.680;23.324;2023-09-07T01:36:44;95708.41;;;20.60;100.00
13027;BME280;6580;42.680;23.324;2023-09-07T01:39:33;95704.03;;;20.66;100.00
13027;BME280;6580;42.680;23.324;2023-09-07T01:42:20;95708.59;;;20.52;100.00
13027;BME280;6580;42.680;23.324;2023-09-07T01:45:10;95712.16;;;20.53;100.00
13027;BME280;6580;42.680;23.324;2023-09-07T01:47:55;95711.09;;;20.47;100.00
13027;BME280;6580;42.680;23.324;2023-09-07T01:50:41;95714.00;;;20.52;100.00
13027;BME280;6580;42.680;23.324;2023-09-07T01:53:29;95707.38;;;20.55;100.00
13027;BME280;6580;42.680;23.324;2023-09-07T01:56:16;95710.91;;;20.62;100.00
13027;BME280;6580;42.680;23.324;2023-09-07T01:59:03;95715.28;;;20.63;100.00
13027;BME280;6580;42.680;23.324;2023-09-07T02:01:49;95709.03;;;20.56;100.00
13027;BME280;6580;42.680;23.324;2023-09-07T02:04:35;95699.88;;;20.63;100.00
13027;BME280;6580;42.680;23.324;2023-09-07T02:07:20;95713.81;;;20.67;100.00
13027;BME280;6580;42.680;23.324;2023-09-07T02:10:07;95710.47;;;20.58;100.00
13027;BME280;6580;42.680;23.324;2023-09-07T02:12:56;95716.72;;;20.52;100.00
13027;BME280;6580;42.680;23.324;2023-09-07T02:15:42;95713.78;;;20.47;100.00
13027;BME280;6580;42.680;23.324;2023-09-07T02:18:27;95708.59;;;20.33;100.00
13027;BME280;6580;42.680;23.324;2023-09-07T02:21:13;95711.66;;;20.17;100.00
13027;BME280;6580;42.680;23.324;2023-09-07T02:23:58;95711.88;;;20.22;100.00
13027;BME280;6580;42.680;23.324;2023-09-07T02:26:44;95714.16;;;20.25;100.00
13027;BME280;6580;42.680;23.324;2023-09-07T02:29:31;95720.63;;;20.24;100.00
13027;BME280;6580;42.680;23.324;2023-09-07T02:32:17;95718.75;;;20.18;100.00
13027;BME280;6580;42.680;23.324;2023-09-07T02:35:03;95715.41;;;20.16;100.00
13027;BME280;6580;42.680;23.324;2023-09-07T02:37:49;95720.44;;;20.26;100.00
13027;BME280;6580;42.680;23.324;2023-09-07T02:40:39;95717.09;;;20.17;100.00
13027;BME280;6580;42.680;23.324;2023-09-07T02:43:25;95721.88;;;20.28;100.00
13027;BME280;6580;42.680;23.324;2023-09-07T02:46:12;95724.59;;;20.28;100.00
13027;BME280;6580;42.680;23.324;2023-09-07T02:48:57;95726.25;;;20.23;100.00
13027;BME280;6580;42.680;23.324;2023-09-07T02:51:44;95726.88;;;20.18;100.00
13027;BME280;6580;42.680;23.324;2023-09-07T02:54:30;95725.63;;;20.27;100.00
13027;BME280;6580;42.680;23.324;2023-09-07T02:57:15;95721.66;;;20.30;100.00
13027;BME280;6580;42.680;23.324;2023-09-07T03:00:01;95720.44;;;20.26;100.00
13027;BME280;6580;42.680;23.324;2023-09-07T03:02:54;95714.81;;;20.27;100.00
13027;BME280;6580;42.680;23.324;2023-09-07T03:05:40;95727.28;;;20.15;100.00
13027;BME280;6580;42.680;23.324;2023-09-07T03:08:25;95726.25;;;20.29;100.00
13027;BME280;6580;42.680;23.324;2023-09-07T03:11:11;95718.75;;;20.18;100.00
13027;BME280;6580;42.680;23.324;2023-09-07T03:17:33;95727.28;;;20.15;100.00
13027;BME280;6580;42.680;23.324;2023-09-07T03:20:22;95727.00;;;19.97;100.00
13027;BME280;6580;42.680;23.324;2023-09-07T03:23:40;95726.13;;;19.97;100.00
13027;BME280;6580;42.680;23.324;2023-09-07T03:26:43;95716.72;;;19.86;100.00
13027;BME280;6580;42.680;23.324;2023-09-07T03:29:29;95725.69;;;19.87;100.00
13027;BME280;6580;42.680;23.324;2023-09-07T03:32:17;95727.84;;;20.04;100.00
13027;BME280;6580;42.680;23.324;2023-09-07T03:35:03;95731.91;;;19.87;100.00
13027;BME280;6580;42.680;23.324;2023-09-07T03:37:52;95733.97;;;19.85;100.00
13027;BME280;6580;42.680;23.324;2023-09-07T03:40:37;95738.56;;;19.85;100.00
13027;BME280;6580;42.680;23.324;2023-09-07T03:43:24;95740.25;;;19.86;100.00
13027;BME280;6580;42.680;23.324;2023-09-07T03:46:11;95734.41;;;19.82;100.00
13027;BME280;6580;42.680;23.324;2023-09-07T03:48:57;95744.13;;;19.77;100.00
13027;BME280;6580;42.680;23.324;2023-09-07T03:51:42;95745.66;;;19.86;100.00
13027;BME280;6580;42.680;23.324;2023-09-07T03:54:32;95759.13;;;19.79;100.00
13027;BME280;6580;42.680;23.324;2023-09-07T03:57:18;95756.03;;;19.82;100.00
13027;BME280;6580;42.680;23.324;2023-09-07T04:00:04;95750.34;;;19.64;100.00
13027;BME280;6580;42.680;23.324;2023-09-07T04:02:53;95758.44;;;19.64;100.00
13027;BME280;6580;42.680;23.324;2023-09-07T04:05:39;95759.69;;;19.68;100.00
13027;BME280;6580;42.680;23.324;2023-09-07T04:08:24;95756.34;;;19.66;100.00
13027;BME280;6580;42.680;23.324;2023-09-07T04:11:15;95762.63;;;19.73;100.00
13027;BME280;6580;42.680;23.324;2023-09-07T04:14:01;95758.09;;;19.74;100.00
13027;BME280;6580;42.680;23.324;2023-09-07T04:16:47;95765.09;;;19.68;100.00
13027;BME280;6580;42.680;23.324;2023-09-07T04:19:36;95760.09;;;19.65;100.00
13027;BME280;6580;42.680;23.324;2023-09-07T04:22:24;95760.06;;;19.59;100.00
13027;BME280;6580;42.680;23.324;2023-09-07T04:25:09;95759.78;;;19.47;100.00
13027;BME280;6580;42.680;23.324;2023-09-07T04:27:57;95762.97;;;19.57;100.00
13027;BME280;6580;42.680;23.324;2023-09-07T04:30:44;95761.16;;;19.64;100.00
13027;BME280;6580;42.680;23.324;2023-09-07T04:33:31;95765.34;;;19.73;100.00
13027;BME280;6580;42.680;23.324;2023-09-07T04:36:17;95761.00;;;19.79;100.00
13027;BME280;6580;42.680;23.324;2023-09-07T04:39:03;95765.13;;;19.75;100.00
13027;BME280;6580;42.680;23.324;2023-09-07T04:41:49;95748.97;;;19.81;100.00
13027;BME280;6580;42.680;23.324;2023-09-07T04:44:37;95766.03;;;19.88;100.00
13027;BME280;6580;42.680;23.324;2023-09-07T04:47:23;95764.59;;;19.92;100.00
13027;BME280;6580;42.680;23.324;2023-09-07T04:50:09;95772.56;;;20.00;100.00
13027;BME280;6580;42.680;23.324;2023-09-07T04:52:56;95768.56;;;19.96;100.00
13027;BME280;6580;42.680;23.324;2023-09-07T04:56:08;95776.34;;;20.06;100.00
13027;BME280;6580;42.680;23.324;2023-09-07T05:02:47;95779.31;;;20.17;100.00
13027;BME280;6580;42.680;23.324;2023-09-07T05:05:32;95774.47;;;20.13;100.00
13027;BME280;6580;42.680;23.324;2023-09-07T05:08:18;95773.88;;;20.11;100.00
13027;BME280;6580;42.680;23.324;2023-09-07T05:11:04;95773.88;;;20.17;100.00
13027;BME280;6580;42.680;23.324;2023-09-07T05:13:50;95774.94;;;20.16;100.00
13027;BME280;6580;42.680;23.324;2023-09-07T05:16:35;95777.16;;;20.06;100.00
13027;BME280;6580;42.680;23.324;2023-09-07T05:19:23;95771.44;;;20.29;100.00
13027;BME280;6580;42.680;23.324;2023-09-07T05:22:09;95779.72;;;20.27;100.00
13027;BME280;6580;42.680;23.324;2023-09-07T05:24:56;95791.16;;;20.16;100.00
13027;BME280;6580;42.680;23.324;2023-09-07T05:27:41;95786.19;;;20.26;100.00
13027;BME280;6580;42.680;23.324;2023-09-07T05:30:28;95788.88;;;20.20;100.00
13027;BME280;6580;42.680;23.324;2023-09-07T05:33:14;95785.72;;;20.10;100.00
13027;BME280;6580;42.680;23.324;2023-09-07T05:36:03;95781.09;;;19.97;100.00
13027;BME280;6580;42.680;23.324;2023-09-07T05:38:49;95784.44;;;19.99;100.00
13027;BME280;6580;42.680;23.324;2023-09-07T05:41:36;95785.50;;;20.11;100.00
13027;BME280;6580;42.680;23.324;2023-09-07T05:44:23;95796.59;;;20.23;100.00
13027;BME280;6580;42.680;23.324;2023-09-07T05:47:09;95784.50;;;20.19;100.00
13027;BME280;6580;42.680;23.324;2023-09-07T05:49:56;95787.03;;;20.33;100.00
13027;BME280;6580;42.680;23.324;2023-09-07T05:52:42;95787.47;;;20.43;100.00
13027;BME280;6580;42.680;23.324;2023-09-07T05:55:29;95793.94;;;20.48;100.00
13027;BME280;6580;42.680;23.324;2023-09-07T05:58:16;95791.03;;;20.44;100.00
13027;BME280;6580;42.680;23.324;2023-09-07T06:01:02;95791.56;;;20.79;100.00
13027;BME280;6580;42.680;23.324;2023-09-07T06:03:49;95788.44;;;20.89;100.00
13027;BME280;6580;42.680;23.324;2023-09-07T06:06:35;95779.28;;;21.29;100.00
13027;BME280;6580;42.680;23.324;2023-09-07T06:09:24;95785.25;;;21.82;100.00
13027;BME280;6580;42.680;23.324;2023-09-07T06:12:09;95779.34;;;22.49;100.00
13027;BME280;6580;42.680;23.324;2023-09-07T06:14:55;95770.56;;;23.63;100.00
13027;BME280;6580;42.680;23.324;2023-09-07T06:17:40;95757.53;;;24.73;95.03
13027;BME280;6580;42.680;23.324;2023-09-07T06:20:26;95770.63;;;25.46;87.02
13027;BME280;6580;42.680;23.324;2023-09-07T06:23:12;95777.97;;;25.23;86.22
13027;BME280;6580;42.680;23.324;2023-09-07T06:26:00;95778.94;;;25.40;82.82
13027;BME280;6580;42.680;23.324;2023-09-07T06:28:46;95776.31;;;25.68;80.17
13027;BME280;6580;42.680;23.324;2023-09-07T06:31:32;95785.25;;;25.97;77.38
13027;BME280;6580;42.680;23.324;2023-09-07T06:34:18;95778.69;;;26.21;75.06
13027;BME280;6580;42.680;23.324;2023-09-07T06:37:05;95782.53;;;26.87;71.27
13027;BME280;6580;42.680;23.324;2023-09-07T06:39:50;95779.19;;;26.69;69.74
13027;BME280;6580;42.680;23.324;2023-09-07T06:42:37;95771.19;;;27.07;68.96
13027;BME280;6580;42.680;23.324;2023-09-07T06:45:22;95783.16;;;27.17;65.35
13027;BME280;6580;42.680;23.324;2023-09-07T06:48:08;95777.53;;;27.57;64.02
13027;BME280;6580;42.680;23.324;2023-09-07T06:50:54;95775.66;;;27.74;62.14
13027;BME280;6580;42.680;23.324;2023-09-07T06:53:39;95773.94;;;26.68;65.84
13027;BME280;6580;42.680;23.324;2023-09-07T06:56:26;95785.19;;;26.32;67.49
13027;BME280;6580;42.680;23.324;2023-09-07T06:59:15;95779.06;;;25.45;69.69
13027;BME280;6580;42.680;23.324;2023-09-07T07:02:03;95789.78;;;25.17;71.91
13027;BME280;6580;42.680;23.324;2023-09-07T07:04:48;95775.88;;;25.93;67.62
13027;BME280;6580;42.680;23.324;2023-09-07T07:07:34;95765.31;;;26.87;63.88
13027;BME280;6580;42.680;23.324;2023-09-07T07:10:21;95772.44;;;28.52;58.27
13027;BME280;6580;42.680;23.324;2023-09-07T07:13:09;95770.38;;;29.12;54.82
13027;BME280;6580;42.680;23.324;2023-09-07T07:16:00;95764.94;;;29.75;51.44
13027;BME280;6580;42.680;23.324;2023-09-07T07:18:46;95774.56;;;28.72;52.86
13027;BME280;6580;42.680;23.324;2023-09-07T07:21:32;95776.84;;;29.27;51.05
13027;BME280;6580;42.680;23.324;2023-09-07T07:24:17;95772.25;;;28.21;55.06
13027;BME280;6580;42.680;23.324;2023-09-07T07:27:03;95788.38;;;27.52;57.10
13027;BME280;6580;42.680;23.324;2023-09-07T07:29:50;95784.16;;;27.93;57.29
13027;BME280;6580;42.680;23.324;2023-09-07T07:32:45;95785.72;;;25.72;63.67
13027;BME280;6580;42.680;23.324;2023-09-07T07:35:31;95783.22;;;25.70;63.98
13027;BME280;6580;42.680;23.324;2023-09-07T07:38:18;95789.88;;;25.63;67.04
13027;BME280;6580;42.680;23.324;2023-09-07T07:41:05;95798.25;;;25.50;68.33
13027;BME280;6580;42.680;23.324;2023-09-07T07:43:53;95799.84;;;26.26;62.17
13027;BME280;6580;42.680;23.324;2023-09-07T07:46:39;95780.00;;;26.07;60.71
13027;BME280;6580;42.680;23.324;2023-09-07T07:49:29;95804.78;;;25.60;61.76
13027;BME280;6580;42.680;23.324;2023-09-07T07:52:18;95797.00;;;25.98;61.65
13027;BME280;6580;42.680;23.324;2023-09-07T07:55:06;95797.13;;;25.91;58.23
13027;BME280;6580;42.680;23.324;2023-09-07T07:57:52;95801.28;;;25.94;57.48
13027;BME280;6580;42.680;23.324;2023-09-07T08:00:38;95794.59;;;26.24;58.75
13027;BME280;6580;42.680;23.324;2023-09-07T08:03:24;95798.69;;;26.61;57.40
13027;BME280;6580;42.680;23.324;2023-09-07T08:06:17;95798.44;;;26.74;55.72
13027;BME280;6580;42.680;23.324;2023-09-07T08:09:04;95793.84;;;26.91;54.23
13027;BME280;6580;42.680;23.324;2023-09-07T08:11:49;95788.16;;;27.86;51.57
13027;BME280;6580;42.680;23.324;2023-09-07T08:14:35;95784.66;;;28.66;50.40
13027;BME280;6580;42.680;23.324;2023-09-07T08:17:22;95786.44;;;28.56;50.29
13027;BME280;6580;42.680;23.324;2023-09-07T08:20:10;95789.38;;;28.28;50.95
13027;BME280;6580;42.680;23.324;2023-09-07T08:22:57;95779.06;;;27.81;52.26
13027;BME280;6580;42.680;23.324;2023-09-07T08:25:44;95758.63;;;27.72;53.59
13027;BME280;6580;42.680;23.324;2023-09-07T08:28:31;95704.59;;;28.91;47.90
13027;BME280;6580;42.680;23.324;2023-09-07T08:31:17;95771.88;;;29.51;47.35
13027;BME280;6580;42.680;23.324;2023-09-07T08:34:07;95771.34;;;30.73;43.26
13027;BME280;6580;42.680;23.324;2023-09-07T08:36:54;95773.69;;;30.44;43.64
13027;BME280;6580;42.680;23.324;2023-09-07T08:39:44;95783.09;;;30.07;43.03
13027;BME280;6580;42.680;23.324;2023-09-07T08:42:30;95776.06;;;30.31;42.98
13027;BME280;6580;42.680;23.324;2023-09-07T08:45:17;95769.88;;;31.12;40.68
13027;BME280;6580;42.680;23.324;2023-09-07T08:48:06;95761.19;;;30.22;41.75
13027;BME280;6580;42.680;23.324;2023-09-07T08:50:53;95764.56;;;30.90;41.46
13027;BME280;6580;42.680;23.324;2023-09-07T08:53:39;95765.75;;;30.48;42.00
13027;BME280;6580;42.680;23.324;2023-09-07T08:56:26;95757.78;;;30.05;42.20
13027;BME280;6580;42.680;23.324;2023-09-07T08:59:12;95757.00;;;30.56;41.08
13027;BME280;6580;42.680;23.324;2023-09-07T09:01:57;95759.78;;;31.62;38.37
13027;BME280;6580;42.680;23.324;2023-09-07T09:04:43;95763.03;;;31.29;37.57
13027;BME280;6580;42.680;23.324;2023-09-07T09:07:28;95760.88;;;31.76;37.71
13027;BME280;6580;42.680;23.324;2023-09-07T09:10:14;95759.13;;;31.05;38.27
13027;BME280;6580;42.680;23.324;2023-09-07T09:13:01;95756.50;;;31.65;37.31
13027;BME280;6580;42.680;23.324;2023-09-07T09:15:47;95749.94;;;30.80;38.48
13027;BME280;6580;42.680;23.324;2023-09-07T09:18:33;95755.34;;;31.41;38.04
13027;BME280;6580;42.680;23.324;2023-09-07T09:21:19;95744.84;;;30.47;38.98
13027;BME280;6580;42.680;23.324;2023-09-07T09:24:10;95744.00;;;31.22;36.64
13027;BME280;6580;42.680;23.324;2023-09-07T09:26:57;95749.56;;;32.12;34.99
13027;BME280;6580;42.680;23.324;2023-09-07T09:29:45;95740.41;;;31.17;36.66
13027;BME280;6580;42.680;23.324;2023-09-07T09:32:35;95739.06;;;31.39;36.72
13027;BME280;6580;42.680;23.324;2023-09-07T09:35:21;95732.44;;;31.15;36.77
13027;BME280;6580;42.680;23.324;2023-09-07T09:38:08;95742.44;;;30.09;38.54
13027;BME280;6580;42.680;23.324;2023-09-07T09:40:55;95747.53;;;29.96;38.66
13027;BME280;6580;42.680;23.324;2023-09-07T09:43:40;95732.47;;;30.49;38.33
13027;BME280;6580;42.680;23.324;2023-09-07T09:46:28;95735.28;;;30.54;37.97
13027;BME280;6580;42.680;23.324;2023-09-07T09:49:17;95728.19;;;30.73;37.74
13027;BME280;6580;42.680;23.324;2023-09-07T09:52:07;95727.13;;;30.99;37.60
13027;BME280;6580;42.680;23.324;2023-09-07T09:54:53;95730.94;;;30.73;37.79
13027;BME280;6580;42.680;23.324;2023-09-07T09:57:41;95726.06;;;30.34;37.10
13027;BME280;6580;42.680;23.324;2023-09-07T10:00:27;95723.81;;;29.85;38.60
13027;BME280;6580;42.680;23.324;2023-09-07T10:03:18;95728.56;;;30.35;37.44
13027;BME280;6580;42.680;23.324;2023-09-07T10:06:09;95711.16;;;30.20;37.58
13027;BME280;6580;42.680;23.324;2023-09-07T10:08:59;95716.72;;;30.35;37.55
13027;BME280;6580;42.680;23.324;2023-09-07T10:11:51;95720.63;;;30.49;37.43
13027;BME280;6580;42.680;23.324;2023-09-07T10:14:41;95716.94;;;30.18;37.75
13027;BME280;6580;42.680;23.324;2023-09-07T10:17:29;95723.13;;;29.63;39.02
13027;BME280;6580;42.680;23.324;2023-09-07T10:20:19;95714.38;;;29.39;39.60
13027;BME280;6580;42.680;23.324;2023-09-07T10:23:08;95704.63;;;29.90;38.92
13027;BME280;6580;42.680;23.324;2023-09-07T10:25:58;95713.91;;;29.79;38.78
13027;BME280;6580;42.680;23.324;2023-09-07T10:28:45;95716.31;;;29.39;39.42
13027;BME280;6580;42.680;23.324;2023-09-07T10:31:32;95714.69;;;28.37;41.62
13027;BME280;6580;42.680;23.324;2023-09-07T10:34:35;95703.91;;;28.79;41.40
13027;BME280;6580;42.680;23.324;2023-09-07T10:37:29;95711.28;;;28.30;41.69
13027;BME280;6580;42.680;23.324;2023-09-07T10:40:19;95706.19;;;28.39;41.71
13027;BME280;6580;42.680;23.324;2023-09-07T10:43:06;95703.94;;;28.57;41.54
13027;BME280;6580;42.680;23.324;2023-09-07T10:45:52;95708.28;;;27.94;42.09
13027;BME280;6580;42.680;23.324;2023-09-07T10:48:38;95703.94;;;28.57;42.36
13027;BME280;6580;42.680;23.324;2023-09-07T10:51:27;95705.50;;;28.75;40.98
13027;BME280;6580;42.680;23.324;2023-09-07T10:54:15;95704.97;;;28.99;40.26
13027;BME280;6580;42.680;23.324;2023-09-07T10:57:07;95699.63;;;30.23;38.73
13027;BME280;6580;42.680;23.324;2023-09-07T10:59:53;95701.97;;;30.00;38.73
13027;BME280;6580;42.680;23.324;2023-09-07T11:02:39;95703.72;;;28.85;41.63
13027;BME280;6580;42.680;23.324;2023-09-07T11:05:24;95702.59;;;28.60;41.03
13027;BME280;6580;42.680;23.324;2023-09-07T11:08:10;95708.41;;;28.20;41.97
13027;BME280;6580;42.680;23.324;2023-09-07T11:10:59;95695.06;;;28.07;42.40
13027;BME280;6580;42.680;23.324;2023-09-07T11:13:45;95698.97;;;28.11;42.78
13027;BME280;6580;42.680;23.324;2023-09-07T11:16:55;95692.34;;;27.70;43.42
13027;BME280;6580;42.680;23.324;2023-09-07T11:19:41;95670.41;;;27.15;44.64
13027;BME280;6580;42.680;23.324;2023-09-07T11:22:27;95685.81;;;27.05;45.17
13027;BME280;6580;42.680;23.324;2023-09-07T11:25:15;95695.91;;;26.88;45.94
13027;BME280;6580;42.680;23.324;2023-09-07T11:28:09;95698.63;;;26.60;46.88
13027;BME280;6580;42.680;23.324;2023-09-07T11:31:02;95678.16;;;26.35;48.05
13027;BME280;6580;42.680;23.324;2023-09-07T11:33:51;95696.59;;;26.67;47.82
13027;BME280;6580;42.680;23.324;2023-09-07T11:36:36;95697.38;;;26.51;47.14
13027;BME280;6580;42.680;23.324;2023-09-07T11:39:25;95696.72;;;25.93;49.70
13027;BME280;6580;42.680;23.324;2023-09-07T11:42:12;95697.84;;;26.20;49.10
13027;BME280;6580;42.680;23.324;2023-09-07T11:45:00;95690.81;;;26.64;48.38
13027;BME280;6580;42.680;23.324;2023-09-07T11:47:50;95693.06;;;26.83;47.80
13027;BME280;6580;42.680;23.324;2023-09-07T11:50:37;95689.72;;;27.09;47.26
13027;BME280;6580;42.680;23.324;2023-09-07T11:53:24;95674.50;;;26.85;47.76
13027;BME280;6580;42.680;23.324;2023-09-07T11:56:17;95673.22;;;27.04;46.98
13027;BME280;6580;42.680;23.324;2023-09-07T11:59:02;95681.06;;;26.84;47.61
13027;BME280;6580;42.680;23.324;2023-09-07T12:01:50;95677.63;;;26.61;47.21
13027;BME280;6580;42.680;23.324;2023-09-07T12:04:35;95675.81;;;26.66;48.02
13027;BME280;6580;42.680;23.324;2023-09-07T12:07:24;95675.63;;;26.56;48.13
13027;BME280;6580;42.680;23.324;2023-09-07T12:10:11;95670.94;;;26.68;47.54
13027;BME280;6580;42.680;23.324;2023-09-07T12:12:57;95670.06;;;26.51;47.29
13027;BME280;6580;42.680;23.324;2023-09-07T12:15:44;95680.69;;;26.64;47.20
13027;BME280;6580;42.680;23.324;2023-09-07T12:18:31;95665.34;;;26.47;47.19
13027;BME280;6580;42.680;23.324;2023-09-07T12:21:19;95674.38;;;26.36;47.85
13027;BME280;6580;42.680;23.324;2023-09-07T12:24:07;95676.34;;;26.40;47.98
13027;BME280;6580;42.680;23.324;2023-09-07T12:26:53;95663.69;;;26.62;47.26
13027;BME280;6580;42.680;23.324;2023-09-07T12:29:41;95666.41;;;26.90;46.15
13027;BME280;6580;42.680;23.324;2023-09-07T12:32:26;95671.13;;;26.50;47.11
13027;BME280;6580;42.680;23.324;2023-09-07T12:35:14;95669.72;;;26.48;47.04
13027;BME280;6580;42.680;23.324;2023-09-07T12:38:09;95669.44;;;26.77;46.60
13027;BME280;6580;42.680;23.324;2023-09-07T12:41:03;95668.50;;;26.16;47.75
13027;BME280;6580;42.680;23.324;2023-09-07T12:46:52;95677.25;;;25.90;47.65
13027;BME280;6580;42.680;23.324;2023-09-07T12:49:40;95679.00;;;26.35;47.75
13027;BME280;6580;42.680;23.324;2023-09-07T12:52:28;95675.66;;;26.05;48.02
13027;BME280;6580;42.680;23.324;2023-09-07T12:55:13;95679.25;;;26.34;47.25
13027;BME280;6580;42.680;23.324;2023-09-07T12:58:00;95678.06;;;26.30;47.30
13027;BME280;6580;42.680;23.324;2023-09-07T13:00:46;95679.28;;;26.22;48.28
13027;BME280;6580;42.680;23.324;2023-09-07T13:03:35;95679.22;;;26.45;47.32
13027;BME280;6580;42.680;23.324;2023-09-07T13:06:21;95683.31;;;26.59;46.92
13027;BME280;6580;42.680;23.324;2023-09-07T13:09:08;95693.38;;;26.31;47.54
13027;BME280;6580;42.680;23.324;2023-09-07T13:11:55;95688.28;;;26.34;47.55
13027;BME280;6580;42.680;23.324;2023-09-07T13:14:41;95697.03;;;26.76;46.21
13027;BME280;6580;42.680;23.324;2023-09-07T13:17:27;95684.53;;;26.96;45.37
13027;BME280;6580;42.680;23.324;2023-09-07T13:20:12;95676.41;;;26.84;45.45
13027;BME280;6580;42.680;23.324;2023-09-07T13:22:57;95681.44;;;27.04;45.45
13027;BME280;6580;42.680;23.324;2023-09-07T13:25:48;95676.25;;;26.91;45.60
13027;BME280;6580;42.680;23.324;2023-09-07T13:28:33;95675.03;;;27.15;44.20
13027;BME280;6580;42.680;23.324;2023-09-07T13:31:19;95677.69;;;27.43;44.28
13027;BME280;6580;42.680;23.324;2023-09-07T13:34:05;95676.63;;;27.44;44.14
13027;BME280;6580;42.680;23.324;2023-09-07T13:36:51;95645.88;;;27.04;44.47
13027;BME280;6580;42.680;23.324;2023-09-07T13:39:37;95669.38;;;26.88;45.83
13027;BME280;6580;42.680;23.324;2023-09-07T13:42:25;95670.13;;;26.84;45.72
13027;BME280;6580;42.680;23.324;2023-09-07T13:45:11;95670.88;;;26.52;45.71
13027;BME280;6580;42.680;23.324;2023-09-07T13:47:56;95662.59;;;26.47;46.26
13027;BME280;6580;42.680;23.324;2023-09-07T13:50:41;95675.47;;;26.79;46.01
13027;BME280;6580;42.680;23.324;2023-09-07T13:53:27;95670.81;;;26.35;47.72
13027;BME280;6580;42.680;23.324;2023-09-07T13:56:13;95670.53;;;26.20;49.76
13027;BME280;6580;42.680;23.324;2023-09-07T13:59:00;95672.66;;;26.18;49.61
13027;BME280;6580;42.680;23.324;2023-09-07T14:01:45;95671.19;;;26.27;50.16
13027;BME280;6580;42.680;23.324;2023-09-07T14:04:32;95671.84;;;26.06;50.76
13027;BME280;6580;42.680;23.324;2023-09-07T14:07:18;95665.25;;;26.30;50.66
13027;BME280;6580;42.680;23.324;2023-09-07T14:10:05;95668.88;;;26.19;50.06
13027;BME280;6580;42.680;23.324;2023-09-07T14:12:51;95672.41;;;25.80;50.50
13027;BME280;6580;42.680;23.324;2023-09-07T14:15:41;95660.75;;;25.96;49.62
13027;BME280;6580;42.680;23.324;2023-09-07T14:18:26;95677.25;;;26.01;49.58
13027;BME280;6580;42.680;23.324;2023-09-07T14:21:14;95667.63;;;25.87;49.53
13027;BME280;6580;42.680;23.324;2023-09-07T14:24:00;95675.56;;;26.00;49.26
13027;BME280;6580;42.680;23.324;2023-09-07T14:26:49;95670.47;;;25.70;49.62
13027;BME280;6580;42.680;23.324;2023-09-07T14:29:36;95667.38;;;26.00;49.64
13027;BME280;6580;42.680;23.324;2023-09-07T14:32:23;95658.06;;;26.13;49.03
13027;BME280;6580;42.680;23.324;2023-09-07T14:35:09;95666.69;;;26.21;49.12
13027;BME280;6580;42.680;23.324;2023-09-07T14:37:56;95663.19;;;26.09;48.56
13027;BME280;6580;42.680;23.324;2023-09-07T14:40:42;95653.44;;;26.13;48.53
13027;BME280;6580;42.680;23.324;2023-09-07T14:43:28;95653.19;;;26.15;48.36
13027;BME280;6580;42.680;23.324;2023-09-07T14:46:14;95658.63;;;25.87;48.77
13027;BME280;6580;42.680;23.324;2023-09-07T14:49:02;95650.59;;;25.80;49.40
13027;BME280;6580;42.680;23.324;2023-09-07T14:51:47;95646.63;;;25.76;50.08